sensor_id;sensor_type;location;lat;lon;timestamp;P1;durP1;ratioP1;P2;durP2;ratioP2
68050;SDS011;54839;51.364;7.246;2024-01-06T00:00:19;14.50;;;11.50;;
68050;SDS011;54839;51.364;7.246;2024-01-06T00:02:48;14.83;;;12.30;;
68050;SDS011;54839;51.364;7.246;2024-01-06T00:05:13;13.57;;;11.30;;
68050;SDS011;54839;51.364;7.246;2024-01-06T00:07:39;13.10;;;11.20;;
68050;SDS011;54839;51.364;7.246;2024-01-06T00:10:05;13.13;;;11.47;;
68050;SDS011;54839;51.364;7.246;2024-01-06T00:12:32;15.13;;;12.17;;
68050;SDS011;54839;51.364;7.246;2024-01-06T00:14:58;12.10;;;10.27;;
68050;SDS011;54839;51.364;7.246;2024-01-06T00:17:23;13.13;;;11.43;;
68050;SDS011;54839;51.364;7.246;2024-01-06T00:19:49;13.50;;;11.13;;
68050;SDS011;54839;51.364;7.246;2024-01-06T00:22:18;11.20;;;9.90;;
68050;SDS011;54839;51.364;7.246;2024-01-06T00:24:44;12.13;;;9.50;;
68050;SDS011;54839;51.364;7.246;2024-01-06T00:27:09;12.83;;;10.80;;
68050;SDS011;54839;51.364;7.246;2024-01-06T00:29:35;13.37;;;11.80;;
68050;SDS011;54839;51.364;7.246;2024-01-06T00:32:00;12.80;;;11.33;;
68050;SDS011;54839;51.364;7.246;2024-01-06T00:34:26;15.73;;;12.47;;
68050;SDS011;54839;51.364;7.246;2024-01-06T00:36:51;14.10;;;10.97;;
68050;SDS011;54839;51.364;7.246;2024-01-06T00:39:17;13.23;;;10.47;;
68050;SDS011;54839;51.364;7.246;2024-01-06T00:41:43;11.60;;;10.40;;
68050;SDS011;54839;51.364;7.246;2024-01-06T00:44:09;12.10;;;10.57;;
68050;SDS011;54839;51.364;7.246;2024-01-06T00:46:34;13.23;;;10.23;;
68050;SDS011;54839;51.364;7.246;2024-01-06T00:49:00;11.83;;;10.63;;
68050;SDS011;54839;51.364;7.246;2024-01-06T00:51:25;11.83;;;10.13;;
68050;SDS011;54839;51.364;7.246;2024-01-06T00:53:51;15.47;;;10.27;;
68050;SDS011;54839;51.364;7.246;2024-01-06T00:56:16;13.77;;;11.13;;
68050;SDS011;54839;51.364;7.246;2024-01-06T00:58:42;14.10;;;12.60;;
68050;SDS011;54839;51.364;7.246;2024-01-06T01:01:07;13.70;;;11.33;;
68050;SDS011;54839;51.364;7.246;2024-01-06T01:03:33;13.50;;;11.73;;
68050;SDS011;54839;51.364;7.246;2024-01-06T01:05:58;12.07;;;10.77;;
68050;SDS011;54839;51.364;7.246;2024-01-06T01:08:24;11.53;;;10.43;;
68050;SDS011;54839;51.364;7.246;2024-01-06T01:10:50;11.40;;;10.20;;
68050;SDS011;54839;51.364;7.246;2024-01-06T01:13:15;13.03;;;10.73;;
68050;SDS011;54839;51.364;7.246;2024-01-06T01:15:41;12.93;;;11.40;;
68050;SDS011;54839;51.364;7.246;2024-01-06T01:18:06;11.13;;;10.03;;
68050;SDS011;54839;51.364;7.246;2024-01-06T01:20:32;12.83;;;10.37;;
68050;SDS011;54839;51.364;7.246;2024-01-06T01:22:57;10.90;;;9.60;;
68050;SDS011;54839;51.364;7.246;2024-01-06T01:25:23;10.13;;;9.00;;
68050;SDS011;54839;51.364;7.246;2024-01-06T01:27:48;11.73;;;10.33;;
68050;SDS011;54839;51.364;7.246;2024-01-06T01:30:14;13.63;;;11.23;;
68050;SDS011;54839;51.364;7.246;2024-01-06T01:32:40;11.23;;;10.13;;
68050;SDS011;54839;51.364;7.246;2024-01-06T01:35:05;13.47;;;12.07;;
68050;SDS011;54839;51.364;7.246;2024-01-06T01:37:31;14.73;;;11.63;;
68050;SDS011;54839;51.364;7.246;2024-01-06T01:39:56;13.33;;;12.00;;
68050;SDS011;54839;51.364;7.246;2024-01-06T01:42:22;12.23;;;10.57;;
68050;SDS011;54839;51.364;7.246;2024-01-06T01:44:47;13.20;;;11.00;;
68050;SDS011;54839;51.364;7.246;2024-01-06T01:47:13;12.60;;;11.13;;
68050;SDS011;54839;51.364;7.246;2024-01-06T01:49:43;13.47;;;12.07;;
68050;SDS011;54839;51.364;7.246;2024-01-06T01:52:11;16.50;;;12.97;;
68050;SDS011;54839;51.364;7.246;2024-01-06T01:54:38;14.60;;;12.30;;
68050;SDS011;54839;51.364;7.246;2024-01-06T01:57:04;13.60;;;11.57;;
68050;SDS011;54839;51.364;7.246;2024-01-06T01:59:30;17.70;;;11.90;;
68050;SDS011;54839;51.364;7.246;2024-01-06T02:01:55;13.23;;;11.47;;
68050;SDS011;54839;51.364;7.246;2024-01-06T02:04:21;13.57;;;11.30;;
68050;SDS011;54839;51.364;7.246;2024-01-06T02:06:47;13.50;;;11.60;;
68050;SDS011;54839;51.364;7.246;2024-01-06T02:09:13;15.80;;;13.03;;
68050;SDS011;54839;51.364;7.246;2024-01-06T02:11:38;14.27;;;11.90;;
68050;SDS011;54839;51.364;7.246;2024-01-06T02:14:04;13.20;;;11.10;;
68050;SDS011;54839;51.364;7.246;2024-01-06T02:16:29;11.60;;;9.60;;
68050;SDS011;54839;51.364;7.246;2024-01-06T02:18:55;14.20;;;11.27;;
68050;SDS011;54839;51.364;7.246;2024-01-06T02:21:22;14.10;;;11.70;;
68050;SDS011;54839;51.364;7.246;2024-01-06T02:23:48;13.30;;;11.07;;
68050;SDS011;54839;51.364;7.246;2024-01-06T02:26:14;11.93;;;10.30;;
68050;SDS011;54839;51.364;7.246;2024-01-06T02:28:40;17.43;;;12.07;;
68050;SDS011;54839;51.364;7.246;2024-01-06T02:31:06;13.23;;;11.77;;
68050;SDS011;54839;51.364;7.246;2024-01-06T02:33:32;15.50;;;11.37;;
68050;SDS011;54839;51.364;7.246;2024-01-06T02:35:57;14.43;;;12.20;;
68050;SDS011;54839;51.364;7.246;2024-01-06T02:38:23;16.70;;;12.40;;
68050;SDS011;54839;51.364;7.246;2024-01-06T02:40:48;14.30;;;12.03;;
68050;SDS011;54839;51.364;7.246;2024-01-06T02:43:14;14.63;;;12.33;;
68050;SDS011;54839;51.364;7.246;2024-01-06T02:45:39;18.13;;;13.70;;
68050;SDS011;54839;51.364;7.246;2024-01-06T02:48:05;15.20;;;12.07;;
68050;SDS011;54839;51.364;7.246;2024-01-06T02:50:30;16.03;;;13.77;;
68050;SDS011;54839;51.364;7.246;2024-01-06T02:52:56;14.63;;;13.13;;
68050;SDS011;54839;51.364;7.246;2024-01-06T02:55:21;14.57;;;11.87;;
68050;SDS011;54839;51.364;7.246;2024-01-06T02:57:47;15.70;;;14.00;;
68050;SDS011;54839;51.364;7.246;2024-01-06T03:00:12;14.17;;;12.40;;
68050;SDS011;54839;51.364;7.246;2024-01-06T03:02:38;15.10;;;12.60;;
68050;SDS011;54839;51.364;7.246;2024-01-06T03:05:07;19.53;;;14.87;;
68050;SDS011;54839;51.364;7.246;2024-01-06T03:07:33;19.57;;;15.40;;
68050;SDS011;54839;51.364;7.246;2024-01-06T03:09:59;16.47;;;13.60;;
68050;SDS011;54839;51.364;7.246;2024-01-06T03:12:25;18.77;;;14.23;;
68050;SDS011;54839;51.364;7.246;2024-01-06T03:14:50;17.93;;;15.57;;
68050;SDS011;54839;51.364;7.246;2024-01-06T03:17:16;16.43;;;13.80;;
68050;SDS011;54839;51.364;7.246;2024-01-06T03:19:42;17.17;;;14.10;;
68050;SDS011;54839;51.364;7.246;2024-01-06T03:22:08;16.00;;;13.57;;
68050;SDS011;54839;51.364;7.246;2024-01-06T03:24:34;19.53;;;13.83;;
68050;SDS011;54839;51.364;7.246;2024-01-06T03:26:59;15.13;;;13.30;;
68050;SDS011;54839;51.364;7.246;2024-01-06T03:29:25;19.63;;;14.50;;
68050;SDS011;54839;51.364;7.246;2024-01-06T03:31:50;20.17;;;15.07;;
68050;SDS011;54839;51.364;7.246;2024-01-06T03:34:16;20.83;;;15.90;;
68050;SDS011;54839;51.364;7.246;2024-01-06T03:36:41;20.60;;;16.27;;
68050;SDS011;54839;51.364;7.246;2024-01-06T03:39:07;21.10;;;16.37;;
68050;SDS011;54839;51.364;7.246;2024-01-06T03:41:33;20.70;;;17.90;;
68050;SDS011;54839;51.364;7.246;2024-01-06T03:43:58;23.30;;;18.03;;
68050;SDS011;54839;51.364;7.246;2024-01-06T03:46:24;20.97;;;15.63;;
68050;SDS011;54839;51.364;7.246;2024-01-06T03:48:50;18.73;;;15.17;;
68050;SDS011;54839;51.364;7.246;2024-01-06T03:51:15;23.73;;;17.70;;
68050;SDS011;54839;51.364;7.246;2024-01-06T03:53:41;22.40;;;17.40;;
68050;SDS011;54839;51.364;7.246;2024-01-06T03:56:06;22.03;;;18.10;;
68050;SDS011;54839;51.364;7.246;2024-01-06T03:58:32;24.30;;;17.47;;
68050;SDS011;54839;51.364;7.246;2024-01-06T04:00:58;24.10;;;19.27;;
68050;SDS011;54839;51.364;7.246;2024-01-06T04:03:24;23.80;;;17.87;;
68050;SDS011;54839;51.364;7.246;2024-01-06T04:05:49;24.90;;;18.70;;
68050;SDS011;54839;51.364;7.246;2024-01-06T04:08:15;22.13;;;18.07;;
68050;SDS011;54839;51.364;7.246;2024-01-06T04:10:40;30.10;;;20.27;;
68050;SDS011;54839;51.364;7.246;2024-01-06T04:13:06;25.20;;;17.37;;
68050;SDS011;54839;51.364;7.246;2024-01-06T04:15:32;27.47;;;21.23;;
68050;SDS011;54839;51.364;7.246;2024-01-06T04:18:01;25.83;;;19.80;;
68050;SDS011;54839;51.364;7.246;2024-01-06T04:20:28;26.00;;;21.80;;
68050;SDS011;54839;51.364;7.246;2024-01-06T04:22:54;28.60;;;17.97;;
68050;SDS011;54839;51.364;7.246;2024-01-06T04:25:19;22.90;;;17.00;;
68050;SDS011;54839;51.364;7.246;2024-01-06T04:27:45;23.70;;;18.37;;
68050;SDS011;54839;51.364;7.246;2024-01-06T04:30:12;25.40;;;16.57;;
68050;SDS011;54839;51.364;7.246;2024-01-06T04:32:38;23.70;;;16.03;;
68050;SDS011;54839;51.364;7.246;2024-01-06T04:35:04;23.13;;;16.80;;
68050;SDS011;54839;51.364;7.246;2024-01-06T04:37:29;22.63;;;16.57;;
68050;SDS011;54839;51.364;7.246;2024-01-06T04:39:55;23.70;;;15.50;;
68050;SDS011;54839;51.364;7.246;2024-01-06T04:42:21;23.37;;;17.30;;
68050;SDS011;54839;51.364;7.246;2024-01-06T04:44:47;24.93;;;17.03;;
68050;SDS011;54839;51.364;7.246;2024-01-06T04:47:13;16.13;;;12.67;;
68050;SDS011;54839;51.364;7.246;2024-01-06T04:49:38;20.27;;;14.50;;
68050;SDS011;54839;51.364;7.246;2024-01-06T04:52:04;19.80;;;13.07;;
68050;SDS011;54839;51.364;7.246;2024-01-06T04:54:29;17.87;;;14.37;;
68050;SDS011;54839;51.364;7.246;2024-01-06T04:56:55;17.90;;;12.43;;
68050;SDS011;54839;51.364;7.246;2024-01-06T04:59:21;18.77;;;12.53;;
68050;SDS011;54839;51.364;7.246;2024-01-06T05:01:47;15.50;;;10.63;;
68050;SDS011;54839;51.364;7.246;2024-01-06T05:04:12;13.30;;;9.73;;
68050;SDS011;54839;51.364;7.246;2024-01-06T05:06:38;14.07;;;9.37;;
68050;SDS011;54839;51.364;7.246;2024-01-06T05:09:03;15.40;;;10.07;;
68050;SDS011;54839;51.364;7.246;2024-01-06T05:11:29;15.00;;;10.73;;
68050;SDS011;54839;51.364;7.246;2024-01-06T05:13:54;13.67;;;10.80;;
68050;SDS011;54839;51.364;7.246;2024-01-06T05:16:20;13.20;;;9.63;;
68050;SDS011;54839;51.364;7.246;2024-01-06T05:18:46;14.17;;;10.00;;
68050;SDS011;54839;51.364;7.246;2024-01-06T05:21:11;18.20;;;11.00;;
68050;SDS011;54839;51.364;7.246;2024-01-06T05:23:37;17.67;;;11.70;;
68050;SDS011;54839;51.364;7.246;2024-01-06T05:26:02;17.27;;;11.67;;
68050;SDS011;54839;51.364;7.246;2024-01-06T05:28:28;18.97;;;12.23;;
68050;SDS011;54839;51.364;7.246;2024-01-06T05:30:53;14.67;;;9.83;;
68050;SDS011;54839;51.364;7.246;2024-01-06T05:33:19;16.30;;;10.47;;
68050;SDS011;54839;51.364;7.246;2024-01-06T05:35:44;15.47;;;11.17;;
68050;SDS011;54839;51.364;7.246;2024-01-06T05:38:10;17.67;;;12.03;;
68050;SDS011;54839;51.364;7.246;2024-01-06T05:40:35;16.43;;;10.80;;
68050;SDS011;54839;51.364;7.246;2024-01-06T05:43:01;14.07;;;10.27;;
68050;SDS011;54839;51.364;7.246;2024-01-06T05:45:26;16.90;;;11.40;;
68050;SDS011;54839;51.364;7.246;2024-01-06T05:47:52;16.00;;;10.80;;
68050;SDS011;54839;51.364;7.246;2024-01-06T05:50:17;15.50;;;11.07;;
68050;SDS011;54839;51.364;7.246;2024-01-06T05:52:43;17.87;;;11.20;;
68050;SDS011;54839;51.364;7.246;2024-01-06T05:55:09;17.70;;;11.03;;
68050;SDS011;54839;51.364;7.246;2024-01-06T05:57:35;16.43;;;10.70;;
68050;SDS011;54839;51.364;7.246;2024-01-06T06:00:00;15.90;;;11.13;;
68050;SDS011;54839;51.364;7.246;2024-01-06T06:02:26;17.00;;;10.70;;
68050;SDS011;54839;51.364;7.246;2024-01-06T06:04:52;17.20;;;11.37;;
68050;SDS011;54839;51.364;7.246;2024-01-06T06:07:17;15.23;;;10.50;;
68050;SDS011;54839;51.364;7.246;2024-01-06T06:09:43;15.63;;;10.20;;
68050;SDS011;54839;51.364;7.246;2024-01-06T06:12:12;16.23;;;11.27;;
68050;SDS011;54839;51.364;7.246;2024-01-06T06:14:38;16.00;;;12.00;;
68050;SDS011;54839;51.364;7.246;2024-01-06T06:17:04;14.97;;;9.60;;
68050;SDS011;54839;51.364;7.246;2024-01-06T06:19:29;16.37;;;11.13;;
68050;SDS011;54839;51.364;7.246;2024-01-06T06:21:55;14.57;;;10.17;;
68050;SDS011;54839;51.364;7.246;2024-01-06T06:24:20;14.00;;;9.87;;
68050;SDS011;54839;51.364;7.246;2024-01-06T06:26:46;16.20;;;10.90;;
68050;SDS011;54839;51.364;7.246;2024-01-06T06:29:11;15.93;;;11.00;;
68050;SDS011;54839;51.364;7.246;2024-01-06T06:31:37;14.70;;;9.70;;
68050;SDS011;54839;51.364;7.246;2024-01-06T06:34:02;13.80;;;9.47;;
68050;SDS011;54839;51.364;7.246;2024-01-06T06:36:28;15.50;;;11.03;;
68050;SDS011;54839;51.364;7.246;2024-01-06T06:38:54;14.83;;;9.77;;
68050;SDS011;54839;51.364;7.246;2024-01-06T06:41:19;17.23;;;10.90;;
68050;SDS011;54839;51.364;7.246;2024-01-06T06:43:45;15.13;;;11.23;;
68050;SDS011;54839;51.364;7.246;2024-01-06T06:46:10;12.30;;;10.10;;
68050;SDS011;54839;51.364;7.246;2024-01-06T06:48:36;16.50;;;11.10;;
68050;SDS011;54839;51.364;7.246;2024-01-06T06:51:02;15.63;;;9.77;;
68050;SDS011;54839;51.364;7.246;2024-01-06T06:53:27;15.33;;;9.93;;
68050;SDS011;54839;51.364;7.246;2024-01-06T06:55:53;15.27;;;10.67;;
68050;SDS011;54839;51.364;7.246;2024-01-06T06:58:18;13.10;;;9.37;;
68050;SDS011;54839;51.364;7.246;2024-01-06T07:00:44;15.17;;;10.60;;
68050;SDS011;54839;51.364;7.246;2024-01-06T07:03:10;17.57;;;11.30;;
68050;SDS011;54839;51.364;7.246;2024-01-06T07:05:35;12.77;;;9.30;;
68050;SDS011;54839;51.364;7.246;2024-01-06T07:08:01;10.17;;;8.00;;
68050;SDS011;54839;51.364;7.246;2024-01-06T07:10:26;12.23;;;8.93;;
68050;SDS011;54839;51.364;7.246;2024-01-06T07:12:52;14.07;;;10.57;;
68050;SDS011;54839;51.364;7.246;2024-01-06T07:15:18;15.40;;;10.20;;
68050;SDS011;54839;51.364;7.246;2024-01-06T07:17:43;11.93;;;8.77;;
68050;SDS011;54839;51.364;7.246;2024-01-06T07:20:09;13.47;;;9.37;;
68050;SDS011;54839;51.364;7.246;2024-01-06T07:22:35;13.17;;;9.33;;
68050;SDS011;54839;51.364;7.246;2024-01-06T07:25:01;16.10;;;11.27;;
68050;SDS011;54839;51.364;7.246;2024-01-06T07:27:27;15.87;;;10.60;;
68050;SDS011;54839;51.364;7.246;2024-01-06T07:29:52;14.17;;;10.80;;
68050;SDS011;54839;51.364;7.246;2024-01-06T07:32:18;16.20;;;11.30;;
68050;SDS011;54839;51.364;7.246;2024-01-06T07:34:43;13.80;;;9.57;;
68050;SDS011;54839;51.364;7.246;2024-01-06T07:37:09;11.87;;;8.80;;
68050;SDS011;54839;51.364;7.246;2024-01-06T07:39:34;16.83;;;10.10;;
68050;SDS011;54839;51.364;7.246;2024-01-06T07:42:00;11.70;;;8.67;;
68050;SDS011;54839;51.364;7.246;2024-01-06T07:44:26;11.57;;;9.37;;
68050;SDS011;54839;51.364;7.246;2024-01-06T07:46:52;10.57;;;8.53;;
68050;SDS011;54839;51.364;7.246;2024-01-06T07:49:18;11.97;;;8.60;;
68050;SDS011;54839;51.364;7.246;2024-01-06T07:51:43;10.67;;;8.00;;
68050;SDS011;54839;51.364;7.246;2024-01-06T07:54:09;13.53;;;9.50;;
68050;SDS011;54839;51.364;7.246;2024-01-06T07:56:35;11.80;;;9.33;;
68050;SDS011;54839;51.364;7.246;2024-01-06T07:59:01;16.10;;;11.40;;
68050;SDS011;54839;51.364;7.246;2024-01-06T08:01:27;15.73;;;10.90;;
68050;SDS011;54839;51.364;7.246;2024-01-06T08:03:52;14.77;;;11.30;;
68050;SDS011;54839;51.364;7.246;2024-01-06T08:06:18;14.33;;;10.80;;
68050;SDS011;54839;51.364;7.246;2024-01-06T08:08:44;14.87;;;10.87;;
68050;SDS011;54839;51.364;7.246;2024-01-06T08:11:10;19.23;;;14.07;;
68050;SDS011;54839;51.364;7.246;2024-01-06T08:13:36;17.37;;;11.83;;
68050;SDS011;54839;51.364;7.246;2024-01-06T08:16:02;16.30;;;12.87;;
68050;SDS011;54839;51.364;7.246;2024-01-06T08:18:28;17.37;;;12.23;;
68050;SDS011;54839;51.364;7.246;2024-01-06T08:20:54;17.17;;;13.13;;
68050;SDS011;54839;51.364;7.246;2024-01-06T08:23:20;18.97;;;14.67;;
68050;SDS011;54839;51.364;7.246;2024-01-06T08:25:45;15.13;;;12.13;;
68050;SDS011;54839;51.364;7.246;2024-01-06T08:28:11;17.70;;;13.00;;
68050;SDS011;54839;51.364;7.246;2024-01-06T08:30:37;17.50;;;12.40;;
68050;SDS011;54839;51.364;7.246;2024-01-06T08:33:03;17.90;;;13.03;;
68050;SDS011;54839;51.364;7.246;2024-01-06T08:35:28;16.87;;;12.33;;
68050;SDS011;54839;51.364;7.246;2024-01-06T08:37:55;20.20;;;13.27;;
68050;SDS011;54839;51.364;7.246;2024-01-06T08:40:20;19.70;;;13.63;;
68050;SDS011;54839;51.364;7.246;2024-01-06T08:42:46;24.73;;;15.90;;
68050;SDS011;54839;51.364;7.246;2024-01-06T08:45:12;21.43;;;15.90;;
68050;SDS011;54839;51.364;7.246;2024-01-06T08:47:37;22.00;;;14.77;;
68050;SDS011;54839;51.364;7.246;2024-01-06T08:50:03;30.90;;;17.67;;
68050;SDS011;54839;51.364;7.246;2024-01-06T08:52:29;22.57;;;16.17;;
68050;SDS011;54839;51.364;7.246;2024-01-06T08:54:55;26.23;;;16.33;;
68050;SDS011;54839;51.364;7.246;2024-01-06T08:57:21;37.27;;;18.53;;
68050;SDS011;54839;51.364;7.246;2024-01-06T08:59:46;24.03;;;15.30;;
68050;SDS011;54839;51.364;7.246;2024-01-06T09:02:12;27.67;;;16.30;;
68050;SDS011;54839;51.364;7.246;2024-01-06T09:04:38;39.60;;;20.00;;
68050;SDS011;54839;51.364;7.246;2024-01-06T09:07:03;32.40;;;18.07;;
68050;SDS011;54839;51.364;7.246;2024-01-06T09:09:29;32.00;;;19.67;;
68050;SDS011;54839;51.364;7.246;2024-01-06T09:11:55;21.33;;;13.40;;
68050;SDS011;54839;51.364;7.246;2024-01-06T09:14:20;25.30;;;15.20;;
68050;SDS011;54839;51.364;7.246;2024-01-06T09:16:46;18.83;;;14.00;;
68050;SDS011;54839;51.364;7.246;2024-01-06T09:19:11;23.90;;;15.73;;
68050;SDS011;54839;51.364;7.246;2024-01-06T09:21:37;24.07;;;17.10;;
68050;SDS011;54839;51.364;7.246;2024-01-06T09:24:02;25.90;;;14.40;;
68050;SDS011;54839;51.364;7.246;2024-01-06T09:26:31;22.33;;;15.70;;
68050;SDS011;54839;51.364;7.246;2024-01-06T09:28:59;23.43;;;15.07;;
68050;SDS011;54839;51.364;7.246;2024-01-06T09:31:25;22.63;;;14.90;;
68050;SDS011;54839;51.364;7.246;2024-01-06T09:33:50;24.87;;;15.07;;
68050;SDS011;54839;51.364;7.246;2024-01-06T09:36:16;25.03;;;13.73;;
68050;SDS011;54839;51.364;7.246;2024-01-06T09:38:42;21.50;;;13.67;;
68050;SDS011;54839;51.364;7.246;2024-01-06T09:41:08;22.43;;;14.53;;
68050;SDS011;54839;51.364;7.246;2024-01-06T09:43:34;21.77;;;14.47;;
68050;SDS011;54839;51.364;7.246;2024-01-06T09:46:32;20.17;;;13.40;;
68050;SDS011;54839;51.364;7.246;2024-01-06T09:48:54;17.70;;;12.23;;
68050;SDS011;54839;51.364;7.246;2024-01-06T09:51:20;20.47;;;14.40;;
68050;SDS011;54839;51.364;7.246;2024-01-06T09:53:57;21.70;;;13.53;;
68050;SDS011;54839;51.364;7.246;2024-01-06T09:56:24;18.80;;;12.90;;
68050;SDS011;54839;51.364;7.246;2024-01-06T09:58:50;20.60;;;12.57;;
68050;SDS011;54839;51.364;7.246;2024-01-06T10:01:17;19.73;;;12.80;;
68050;SDS011;54839;51.364;7.246;2024-01-06T10:03:43;18.90;;;13.27;;
68050;SDS011;54839;51.364;7.246;2024-01-06T10:06:10;21.73;;;13.27;;
68050;SDS011;54839;51.364;7.246;2024-01-06T10:08:36;17.63;;;12.87;;
68050;SDS011;54839;51.364;7.246;2024-01-06T10:11:05;22.90;;;13.20;;
68050;SDS011;54839;51.364;7.246;2024-01-06T10:13:31;26.67;;;15.50;;
68050;SDS011;54839;51.364;7.246;2024-01-06T10:15:57;24.63;;;14.13;;
68050;SDS011;54839;51.364;7.246;2024-01-06T10:18:24;19.43;;;13.23;;
68050;SDS011;54839;51.364;7.246;2024-01-06T10:20:51;15.83;;;10.93;;
68050;SDS011;54839;51.364;7.246;2024-01-06T10:23:16;17.10;;;11.50;;
68050;SDS011;54839;51.364;7.246;2024-01-06T10:25:42;15.03;;;10.13;;
68050;SDS011;54839;51.364;7.246;2024-01-06T10:28:11;17.80;;;10.33;;
68050;SDS011;54839;51.364;7.246;2024-01-06T10:30:38;19.47;;;13.80;;
68050;SDS011;54839;51.364;7.246;2024-01-06T10:33:07;19.93;;;12.63;;
68050;SDS011;54839;51.364;7.246;2024-01-06T10:35:34;24.67;;;14.00;;
68050;SDS011;54839;51.364;7.246;2024-01-06T10:38:01;24.03;;;15.10;;
68050;SDS011;54839;51.364;7.246;2024-01-06T10:40:28;22.30;;;14.47;;
68050;SDS011;54839;51.364;7.246;2024-01-06T10:42:54;25.30;;;15.83;;
68050;SDS011;54839;51.364;7.246;2024-01-06T10:45:22;23.13;;;14.63;;
68050;SDS011;54839;51.364;7.246;2024-01-06T10:47:48;20.90;;;13.63;;
68050;SDS011;54839;51.364;7.246;2024-01-06T10:50:15;22.90;;;15.47;;
68050;SDS011;54839;51.364;7.246;2024-01-06T10:52:42;37.93;;;13.73;;
68050;SDS011;54839;51.364;7.246;2024-01-06T10:55:09;26.23;;;13.57;;
68050;SDS011;54839;51.364;7.246;2024-01-06T10:57:35;24.07;;;12.17;;
68050;SDS011;54839;51.364;7.246;2024-01-06T11:00:03;20.53;;;12.80;;
68050;SDS011;54839;51.364;7.246;2024-01-06T11:02:30;18.73;;;11.00;;
68050;SDS011;54839;51.364;7.246;2024-01-06T11:04:57;17.27;;;11.80;;
68050;SDS011;54839;51.364;7.246;2024-01-06T11:07:23;21.03;;;10.70;;
68050;SDS011;54839;51.364;7.246;2024-01-06T11:09:51;14.00;;;9.03;;
68050;SDS011;54839;51.364;7.246;2024-01-06T11:12:17;15.40;;;10.43;;
68050;SDS011;54839;51.364;7.246;2024-01-06T11:14:44;16.63;;;9.70;;
68050;SDS011;54839;51.364;7.246;2024-01-06T11:17:10;17.47;;;11.70;;
68050;SDS011;54839;51.364;7.246;2024-01-06T11:24:43;14.53;;;10.30;;
68050;SDS011;54839;51.364;7.246;2024-01-06T11:27:22;19.87;;;11.83;;
68050;SDS011;54839;51.364;7.246;2024-01-06T11:29:51;15.93;;;10.90;;
68050;SDS011;54839;51.364;7.246;2024-01-06T11:32:28;16.07;;;11.17;;
68050;SDS011;54839;51.364;7.246;2024-01-06T11:35:05;17.03;;;13.43;;
68050;SDS011;54839;51.364;7.246;2024-01-06T11:45:37;15.03;;;10.73;;
68050;SDS011;54839;51.364;7.246;2024-01-06T11:48:05;15.57;;;10.97;;
68050;SDS011;54839;51.364;7.246;2024-01-06T11:50:33;14.90;;;9.90;;
68050;SDS011;54839;51.364;7.246;2024-01-06T11:53:04;16.80;;;11.37;;
68050;SDS011;54839;51.364;7.246;2024-01-06T11:55:30;20.63;;;10.77;;
68050;SDS011;54839;51.364;7.246;2024-01-06T11:57:59;19.33;;;10.27;;
68050;SDS011;54839;51.364;7.246;2024-01-06T12:00:28;21.50;;;10.37;;
68050;SDS011;54839;51.364;7.246;2024-01-06T12:02:57;30.57;;;12.10;;
68050;SDS011;54839;51.364;7.246;2024-01-06T12:05:24;26.40;;;13.30;;
68050;SDS011;54839;51.364;7.246;2024-01-06T12:07:58;37.87;;;13.10;;
68050;SDS011;54839;51.364;7.246;2024-01-06T12:10:24;19.83;;;10.80;;
68050;SDS011;54839;51.364;7.246;2024-01-06T12:12:58;15.07;;;8.83;;
68050;SDS011;54839;51.364;7.246;2024-01-06T12:15:25;20.30;;;13.73;;
68050;SDS011;54839;51.364;7.246;2024-01-06T12:17:51;21.93;;;13.10;;
68050;SDS011;54839;51.364;7.246;2024-01-06T12:20:17;18.40;;;12.40;;
68050;SDS011;54839;51.364;7.246;2024-01-06T12:22:43;23.00;;;12.93;;
68050;SDS011;54839;51.364;7.246;2024-01-06T12:25:09;17.10;;;11.37;;
68050;SDS011;54839;51.364;7.246;2024-01-06T12:27:35;20.83;;;12.73;;
68050;SDS011;54839;51.364;7.246;2024-01-06T12:30:01;29.40;;;17.57;;
68050;SDS011;54839;51.364;7.246;2024-01-06T12:32:27;21.87;;;15.60;;
68050;SDS011;54839;51.364;7.246;2024-01-06T12:34:53;22.40;;;17.10;;
68050;SDS011;54839;51.364;7.246;2024-01-06T12:37:21;24.90;;;15.57;;
68050;SDS011;54839;51.364;7.246;2024-01-06T12:39:49;24.63;;;14.77;;
68050;SDS011;54839;51.364;7.246;2024-01-06T12:42:16;22.83;;;15.73;;
68050;SDS011;54839;51.364;7.246;2024-01-06T12:44:42;21.57;;;13.73;;
68050;SDS011;54839;51.364;7.246;2024-01-06T12:47:08;17.90;;;13.40;;
68050;SDS011;54839;51.364;7.246;2024-01-06T12:49:34;17.07;;;12.70;;
68050;SDS011;54839;51.364;7.246;2024-01-06T12:52:00;20.17;;;13.50;;
68050;SDS011;54839;51.364;7.246;2024-01-06T12:54:26;18.00;;;13.00;;
68050;SDS011;54839;51.364;7.246;2024-01-06T12:56:51;19.00;;;13.23;;
68050;SDS011;54839;51.364;7.246;2024-01-06T12:59:17;15.90;;;12.17;;
68050;SDS011;54839;51.364;7.246;2024-01-06T13:01:43;18.03;;;13.60;;
68050;SDS011;54839;51.364;7.246;2024-01-06T13:04:09;18.70;;;13.70;;
68050;SDS011;54839;51.364;7.246;2024-01-06T13:06:34;17.50;;;13.10;;
68050;SDS011;54839;51.364;7.246;2024-01-06T13:09:00;20.00;;;13.97;;
68050;SDS011;54839;51.364;7.246;2024-01-06T13:11:31;23.43;;;14.80;;
68050;SDS011;54839;51.364;7.246;2024-01-06T13:13:57;17.93;;;14.20;;
68050;SDS011;54839;51.364;7.246;2024-01-06T13:16:22;24.30;;;15.43;;
68050;SDS011;54839;51.364;7.246;2024-01-06T13:18:48;23.43;;;14.93;;
68050;SDS011;54839;51.364;7.246;2024-01-06T13:21:13;22.07;;;14.97;;
68050;SDS011;54839;51.364;7.246;2024-01-06T13:23:39;24.10;;;15.67;;
68050;SDS011;54839;51.364;7.246;2024-01-06T13:26:05;23.80;;;15.87;;
68050;SDS011;54839;51.364;7.246;2024-01-06T13:28:30;22.90;;;14.10;;
68050;SDS011;54839;51.364;7.246;2024-01-06T13:30:56;26.93;;;17.30;;
68050;SDS011;54839;51.364;7.246;2024-01-06T13:33:21;21.03;;;13.93;;
68050;SDS011;54839;51.364;7.246;2024-01-06T13:35:47;23.17;;;15.60;;
68050;SDS011;54839;51.364;7.246;2024-01-06T13:38:13;25.10;;;15.73;;
68050;SDS011;54839;51.364;7.246;2024-01-06T13:40:38;19.23;;;10.67;;
68050;SDS011;54839;51.364;7.246;2024-01-06T13:43:04;17.87;;;12.17;;
68050;SDS011;54839;51.364;7.246;2024-01-06T13:45:32;22.40;;;14.53;;
68050;SDS011;54839;51.364;7.246;2024-01-06T13:47:58;22.03;;;14.87;;
68050;SDS011;54839;51.364;7.246;2024-01-06T13:50:24;21.07;;;14.13;;
68050;SDS011;54839;51.364;7.246;2024-01-06T13:52:49;22.40;;;13.90;;
68050;SDS011;54839;51.364;7.246;2024-01-06T13:55:15;17.67;;;13.00;;
68050;SDS011;54839;51.364;7.246;2024-01-06T13:57:41;18.07;;;10.90;;
68050;SDS011;54839;51.364;7.246;2024-01-06T14:00:09;19.30;;;12.43;;
68050;SDS011;54839;51.364;7.246;2024-01-06T14:02:36;17.23;;;11.83;;
68050;SDS011;54839;51.364;7.246;2024-01-06T14:05:03;18.30;;;13.23;;
68050;SDS011;54839;51.364;7.246;2024-01-06T14:07:29;16.73;;;12.17;;
68050;SDS011;54839;51.364;7.246;2024-01-06T14:09:55;15.60;;;10.50;;
68050;SDS011;54839;51.364;7.246;2024-01-06T14:12:20;18.53;;;12.50;;
68050;SDS011;54839;51.364;7.246;2024-01-06T14:14:46;13.10;;;9.43;;
68050;SDS011;54839;51.364;7.246;2024-01-06T14:17:12;19.87;;;12.57;;
68050;SDS011;54839;51.364;7.246;2024-01-06T14:19:37;14.93;;;9.80;;
68050;SDS011;54839;51.364;7.246;2024-01-06T14:22:03;16.20;;;11.10;;
68050;SDS011;54839;51.364;7.246;2024-01-06T14:24:31;15.20;;;10.83;;
68050;SDS011;54839;51.364;7.246;2024-01-06T14:26:56;21.23;;;13.77;;
68050;SDS011;54839;51.364;7.246;2024-01-06T14:29:22;25.40;;;15.87;;